Flight Track Log - Related Links

Times and Time Zones

All times are in EDT time to prevent confusion due to time zone crossing. See the VH-ENT flight status page for this flight to view local times or setup timezone preferences in your user account.

Time Position Orientation Groundspeed Altitude Reporting Facility
EDT Latitude Longitude Course Direction KTS MPH feet Rate Location/Type
Mon 11:23:38 PM -14.9085 125.7273 219° Southwest 10,000  Level Aus ATC (Calculated)
Mon 11:24:22 PM -14.9602 125.6842 20° North 10,000  Level Aus ATC (Calculated)
Mon 11:24:22 PM -14.9602 125.6842 227° Southwest 10,000  Level Aus ATC (Calculated)
Mon 11:26:00 PM -15.3126 125.2852 227° Southwest  Level Estimated
Mon 11:27:00 PM -15.5280 125.0403 228° Southwest  Level Estimated
Mon 11:27:22 PM -15.0572 125.6033 228° Southwest 10,000  Level Aus ATC (Calculated)
Mon 11:29:00 PM -15.4077 125.2024 228° Southwest  Level Estimated
Mon 11:30:00 PM -15.6220 124.9563 228° Southwest  Level Estimated
Mon 11:31:00 PM -15.8360 124.7097 228° Southwest  Level Estimated
Mon 11:32:00 PM -16.0497 124.4625 228° Southwest  Level Estimated
Mon 11:33:00 PM -16.2632 124.2149 228° Southwest  Level Estimated
Mon 11:34:00 PM -16.4764 123.9667 228° Southwest  Level Estimated
Mon 11:35:00 PM -16.6892 123.7179 228° Southwest  Level Estimated
Mon 11:36:00 PM -16.9018 123.4686 228° Southwest  Level Estimated
Mon 11:37:00 PM -17.1140 123.2187 228° Southwest  Level Estimated
Mon 11:38:00 PM -17.3260 122.9682 228° Southwest  Level Estimated
Mon 11:39:00 PM -17.5376 122.7172 228° Southwest  Level Estimated
Mon 11:39:57 PM -15.4810 125.2485 229° Southwest 10,000  Level Aus ATC (Calculated)
Mon 11:40:00 PM -17.7490 122.4656 229° Southwest  Level Estimated
Mon 11:41:00 PM -15.7071 124.9770 229° Southwest  Level Estimated
Mon 11:42:00 PM -15.9220 124.7179 229° Southwest  Level Estimated
Mon 11:43:00 PM -16.1367 124.4582 229° Southwest  Level Estimated
Mon 11:44:00 PM -16.3511 124.1980 229° Southwest  Level Estimated
Mon 11:44:37 PM -15.6715 125.0884 231° Southwest 10,000  Level Aus ATC (Calculated)
Mon 11:45:00 PM -16.5651 123.9372 229° Southwest  Level Estimated
Mon 11:46:00 PM -15.9648 124.7263 230° Southwest  Level Estimated
Mon 11:47:00 PM -16.1764 124.4639 230° Southwest  Level Estimated
Mon 11:48:00 PM -16.3877 124.2009 230° Southwest  Level Estimated
Mon 11:48:02 PM -15.7698 124.9917 360° North 300  Level Aus ATC (Calculated)
Mon 11:48:37 PM -15.7698 124.9917 230° Southwest 300  Level Aus ATC (Calculated)
Mon 11:50:00 PM -16.0614 124.6280 230° Southwest  Level Estimated
Mon 11:50:33 PM -15.8395 124.9052 230° Southwest 300  Level Aus ATC (Calculated)
Mon 11:52:00 PM -16.1480 124.5197 230° Southwest  Level Estimated
Mon 11:53:00 PM -16.3604 124.2532 230° Southwest  Level Estimated
Mon 11:54:00 PM -16.5724 123.9861 230° Southwest  Level Estimated
Mon 11:55:00 PM -16.7841 123.7184 230° Southwest  Level Estimated
Mon 11:56:00 PM -16.9954 123.4501 230° Southwest  Level Estimated
Mon 11:57:00 PM -17.2064 123.1812 231° Southwest  Level Estimated
Mon 11:58:00 PM -17.4171 122.9117 231° Southwest  Level Estimated
Mon 11:58:47 PM -16.0830 124.6017 230° Southwest 300  Level Aus ATC (Calculated)
Mon 11:59:00 PM -17.6273 122.6415 231° Southwest  Level Estimated
Tue 12:00:00 AM -16.3414 124.2776 230° Southwest  Level Estimated
Tue 12:01:00 AM -16.5535 124.0105 230° Southwest  Level Estimated
Tue 12:02:00 AM -16.7652 123.7428 230° Southwest  Level Estimated
Tue 12:03:00 AM -16.9765 123.4745 230° Southwest  Level Estimated
Tue 12:04:00 AM -17.1875 123.2056 231° Southwest  Level Estimated
Tue 12:05:00 AM -17.3981 122.9361 231° Southwest  Level Estimated
Tue 12:05:03 AM -16.2914 124.3411 230° Southwest 300  Level Aus ATC (Calculated)
Tue 12:07:00 AM -16.7046 123.8199 230° Southwest  Level Estimated
Tue 12:08:00 AM -16.9160 123.5518 230° Southwest  Level Estimated
Tue 12:09:00 AM -17.1271 123.2830 231° Southwest  Level Estimated
Tue 12:10:00 AM -17.3378 123.0137 231° Southwest  Level Estimated
Tue 12:11:00 AM -17.5481 122.7437 231° Southwest  Level Estimated
Tue 12:12:00 AM -17.7581 122.4731 231° Southwest  Level Estimated
Tue 12:13:00 AM -17.9447 122.2317 231° Southwest  Level Estimated
Tue 12:14:00 AM -17.9447 122.2317 235° Southwest  Level Estimated
Tue 12:14:00 AM -16.5687 123.9926 230° Southwest 300  Level Aus ATC (Calculated)
Tue 12:15:00 AM -16.7803 123.7248 230° Southwest  Level Estimated
Tue 12:16:00 AM -16.9915 123.4564 231° Southwest  Level Estimated
Tue 12:17:00 AM -17.2024 123.1874 231° Southwest  Level Estimated
Tue 12:18:00 AM -17.4129 122.9178 231° Southwest  Level Estimated
Tue 12:18:02 AM -16.7072 123.8181 124° Southeast 300  Level Aus ATC (Calculated)
Tue 12:18:02 AM -16.7072 123.8181 231° Southwest 300  Level Aus ATC (Calculated)
Tue 12:20:00 AM -17.1224 123.2900 231° Southwest  Level Estimated
Tue 12:21:00 AM -17.3330 123.0205 231° Southwest  Level Estimated
Tue 12:22:00 AM -17.5432 122.7505 231° Southwest  Level Estimated
Tue 12:23:00 AM -17.7531 122.4798 231° Southwest  Level Estimated
Tue 12:24:00 AM -17.9447 122.2317 231° Southwest  Level Estimated
Tue 12:25:00 AM -17.9447 122.2317 235° Southwest  Level Estimated
Tue 12:26:00 AM -17.9447 122.2317 231° Southwest  Level Estimated
Tue 12:26:21 AM -16.9491 123.5119 360° North 300  Level Aus ATC (Calculated)
Tue 12:26:45 AM -16.9491 123.5119 231° Southwest 300  Level Aus ATC (Calculated)
Tue 12:28:00 AM -17.2125 123.1756 231° Southwest  Level Estimated
Tue 12:29:00 AM -17.4228 122.9058 231° Southwest  Level Estimated
Tue 12:30:00 AM -17.6328 122.6354 231° Southwest  Level Estimated
Tue 12:31:00 AM -17.8424 122.3644 231° Southwest  Level Estimated
Tue 12:32:00 AM -17.9447 122.2317 231° Southwest  Level Estimated
Tue 12:33:00 AM -17.9447 122.2317 235° Southwest  Level Estimated
Tue 12:34:00 AM -17.9447 122.2317 235° Southwest  Level Estimated
Tue 12:35:00 AM -17.9447 122.2317 235° Southwest  Level Estimated
Tue 12:36:00 AM -17.9447 122.2317 235° Southwest  Level Estimated
Tue 12:37:00 AM -17.9447 122.2317 235° Southwest  Level Estimated
Tue 12:38:00 AM -17.9447 122.2317 235° Southwest  Level Estimated
Tue 12:38:41 AM -17.3283 123.0293 231° Southwest 300  Level Aus ATC (Calculated)
Tue 12:39:00 AM -17.9447 122.2317 235° Southwest  Level Estimated
Tue 12:40:00 AM -17.6045 122.6731 231° Southwest  Level Estimated
Tue 12:41:00 AM -17.8138 122.4019 231° Southwest  Level Estimated
Tue 12:41:24 AM -17.3971 122.9414 231° Southwest 300  Level Aus ATC (Calculated)
Tue 12:43:00 AM -17.7323 122.5079 231° Southwest  Level Estimated
Tue 12:44:00 AM -17.9412 122.2362 231° Southwest  Level Estimated
Tue 12:45:00 AM -17.9447 122.2317 231° Southwest  Level Estimated
Tue 12:46:00 AM -17.9447 122.2317 235° Southwest  Level Estimated
Tue 12:47:00 AM -17.9447 122.2317 235° Southwest  Level Estimated
Tue 12:48:00 AM -17.9447 122.2317 235° Southwest  Level Estimated
Tue 12:48:02 AM -17.6034 122.6771 231° Southwest 300  Level Aus ATC (Calculated)
Tue 12:50:00 AM -17.9447 122.2317 231° Southwest  Level Estimated
Tue 12:50:00 AM -17.6720 122.5889 231° Southwest 300  Level Aus ATC (Calculated)
Tue 12:51:00 AM -17.8801 122.3165 231° Southwest  Level Estimated
Tue 12:52:00 AM -17.9447 122.2317 231° Southwest  Level Estimated
Tue 12:53:00 AM -17.9447 122.2317 235° Southwest  Level Estimated
Tue 12:54:00 AM -17.9447 122.2317 235° Southwest  Level Estimated
Tue 12:55:00 AM -17.9447 122.2317 235° Southwest  Level Estimated
Tue 12:56:00 AM -17.9447 122.2317 235° Southwest  Level Estimated
Tue 12:57:00 AM -17.9447 122.2317 235° Southwest  Level Estimated
Tue 12:58:00 AM -17.9447 122.2317 235° Southwest  Level Estimated
Tue 12:58:37 AM -17.9463 122.2353 360° North 300  Level Aus ATC (Calculated)
Tue 12:58:37 AM -17.9463 122.2353 295° West 300  Level Aus ATC (Calculated)
Tue 01:00:00 AM -17.9447 122.2317 295° West  Level Estimated
Tue 01:01:00 AM -17.9447 122.2317 295° West  Level Estimated
Tue 01:02:00 AM -17.9447 122.2317 235° Southwest  Level Estimated
Tue 01:03:00 AM -17.9447 122.2317 235° Southwest  Level Estimated
Tue 01:04:00 AM -17.9447 122.2317 235° Southwest  Level Estimated
Tue 01:05:00 AM -17.9447 122.2317 235° Southwest  Level Estimated
Tue 01:06:00 AM -17.9447 122.2317 235° Southwest  Level Estimated
Tue 01:07:00 AM -17.9447 122.2317 235° Southwest  Level Estimated
Tue 01:08:00 AM -17.9447 122.2317 235° Southwest  Level Estimated
Tue 01:09:00 AM -17.9447 122.2317 235° Southwest  Level Estimated
Tue 01:10:00 AM -17.9447 122.2317 235° Southwest  Level Estimated
Tue 01:11:00 AM -17.9447 122.2317 235° Southwest  Level Estimated
Tue 01:12:00 AM -17.9447 122.2317 235° Southwest  Level Estimated
Tue 01:13:00 AM -17.9447 122.2317 235° Southwest  Level Estimated
Tue 01:14:00 AM -17.9447 122.2317 235° Southwest  Level Estimated
Tue 01:15:00 AM -17.9447 122.2317 235° Southwest  Level Estimated

Login

Don't have an account? Register now (free) for customized features, flight alerts, and more!